sensor_id;sensor_type;location;lat;lon;timestamp;pressure;altitude;pressure_sealevel;temperature;humidity
82305;BME280;71914;47.382;8.168;2023-10-08T00:00:22;97887.69;;;11.31;79.36
82305;BME280;71914;47.382;8.168;2023-10-08T00:03:08;97892.31;;;11.27;78.48
82305;BME280;71914;47.382;8.168;2023-10-08T00:05:37;97888.94;;;11.14;79.44
82305;BME280;71914;47.382;8.168;2023-10-08T00:08:04;97894.72;;;11.06;80.23
82305;BME280;71914;47.382;8.168;2023-10-08T00:10:34;97887.31;;;11.00;79.87
82305;BME280;71914;47.382;8.168;2023-10-08T00:13:00;97885.16;;;10.94;80.55
82305;BME280;71914;47.382;8.168;2023-10-08T00:15:25;97889.66;;;10.92;80.64
82305;BME280;71914;47.382;8.168;2023-10-08T00:17:51;97886.75;;;10.84;80.69
82305;BME280;71914;47.382;8.168;2023-10-08T00:20:20;97888.34;;;10.73;81.09
82305;BME280;71914;47.382;8.168;2023-10-08T00:22:53;97886.16;;;10.67;81.45
82305;BME280;71914;47.382;8.168;2023-10-08T00:25:21;97891.53;;;10.66;82.04
82305;BME280;71914;47.382;8.168;2023-10-08T00:27:47;97893.72;;;10.72;82.06
82305;BME280;71914;47.382;8.168;2023-10-08T00:30:16;97883.13;;;10.73;81.93
82305;BME280;71914;47.382;8.168;2023-10-08T00:32:44;97887.31;;;10.76;81.82
82305;BME280;71914;47.382;8.168;2023-10-08T00:35:10;97886.44;;;10.75;81.73
82305;BME280;71914;47.382;8.168;2023-10-08T00:37:45;97891.38;;;10.80;81.11
82305;BME280;71914;47.382;8.168;2023-10-08T00:40:13;97892.94;;;10.83;81.19
82305;BME280;71914;47.382;8.168;2023-10-08T00:42:44;97886.97;;;10.80;80.94
82305;BME280;71914;47.382;8.168;2023-10-08T00:45:11;97885.38;;;10.78;81.38
82305;BME280;71914;47.382;8.168;2023-10-08T00:47:40;97885.38;;;10.78;81.27
82305;BME280;71914;47.382;8.168;2023-10-08T00:50:09;97887.94;;;10.79;81.81
82305;BME280;71914;47.382;8.168;2023-10-08T00:52:38;97886.88;;;10.82;80.64
82305;BME280;71914;47.382;8.168;2023-10-08T00:55:28;97888.00;;;10.78;80.65
82305;BME280;71914;47.382;8.168;2023-10-08T00:57:57;97885.78;;;10.85;80.62
82305;BME280;71914;47.382;8.168;2023-10-08T01:00:23;97884.13;;;10.84;80.68
82305;BME280;71914;47.382;8.168;2023-10-08T01:02:57;97884.13;;;10.84;80.81
82305;BME280;71914;47.382;8.168;2023-10-08T01:05:26;97880.53;;;10.85;80.55
82305;BME280;71914;47.382;8.168;2023-10-08T01:08:08;97890.19;;;10.84;80.28
82305;BME280;71914;47.382;8.168;2023-10-08T01:10:38;97887.09;;;10.66;80.93
82305;BME280;71914;47.382;8.168;2023-10-08T01:13:08;97883.53;;;10.67;81.36
82305;BME280;71914;47.382;8.168;2023-10-08T01:15:41;97881.66;;;10.69;81.62
82305;BME280;71914;47.382;8.168;2023-10-08T01:18:10;97883.75;;;10.77;81.38
82305;BME280;71914;47.382;8.168;2023-10-08T01:20:43;97883.50;;;10.80;80.24
82305;BME280;71914;47.382;8.168;2023-10-08T01:23:20;97875.69;;;10.67;79.89
82305;BME280;71914;47.382;8.168;2023-10-08T01:25:48;97870.16;;;10.59;80.60
82305;BME280;71914;47.382;8.168;2023-10-08T01:28:18;97873.44;;;10.50;80.16
82305;BME280;71914;47.382;8.168;2023-10-08T01:30:51;97867.69;;;10.44;80.92
82305;BME280;71914;47.382;8.168;2023-10-08T01:33:19;97869.03;;;10.37;80.36
82305;BME280;71914;47.382;8.168;2023-10-08T01:35:46;97867.56;;;10.33;80.53
82305;BME280;71914;47.382;8.168;2023-10-08T01:38:14;97868.00;;;10.27;80.85
82305;BME280;71914;47.382;8.168;2023-10-08T01:40:41;97862.84;;;10.25;81.36
82305;BME280;71914;47.382;8.168;2023-10-08T01:43:07;97862.44;;;10.19;81.31
82305;BME280;71914;47.382;8.168;2023-10-08T01:45:36;97861.09;;;10.26;81.58
82305;BME280;71914;47.382;8.168;2023-10-08T01:48:01;97854.91;;;10.27;81.00
82305;BME280;71914;47.382;8.168;2023-10-08T01:50:27;97854.91;;;10.27;80.77
82305;BME280;71914;47.382;8.168;2023-10-08T01:52:55;97857.84;;;10.22;81.56
82305;BME280;71914;47.382;8.168;2023-10-08T01:55:21;97855.75;;;10.14;81.33
82305;BME280;71914;47.382;8.168;2023-10-08T01:57:50;97858.38;;;10.14;81.52
82305;BME280;71914;47.382;8.168;2023-10-08T02:00:19;97851.25;;;10.17;81.73
82305;BME280;71914;47.382;8.168;2023-10-08T02:02:45;97851.66;;;10.10;81.75
82305;BME280;71914;47.382;8.168;2023-10-08T02:05:11;97849.28;;;10.07;81.96
82305;BME280;71914;47.382;8.168;2023-10-08T02:07:40;97844.97;;;10.06;81.70
82305;BME280;71914;47.382;8.168;2023-10-08T02:10:07;97847.25;;;10.11;82.01
82305;BME280;71914;47.382;8.168;2023-10-08T02:12:33;97848.94;;;10.12;82.07
82305;BME280;71914;47.382;8.168;2023-10-08T02:14:59;97837.19;;;10.18;81.37
82305;BME280;71914;47.382;8.168;2023-10-08T02:17:28;97843.06;;;10.08;81.58
82305;BME280;71914;47.382;8.168;2023-10-08T02:19:53;97837.66;;;9.99;82.19
82305;BME280;71914;47.382;8.168;2023-10-08T02:22:19;97840.56;;;9.94;82.54
82305;BME280;71914;47.382;8.168;2023-10-08T02:24:45;97835.66;;;9.89;82.85
82305;BME280;71914;47.382;8.168;2023-10-08T02:27:10;97828.63;;;9.90;82.53
82305;BME280;71914;47.382;8.168;2023-10-08T02:29:36;97836.81;;;9.85;82.72
82305;BME280;71914;47.382;8.168;2023-10-08T02:32:03;97833.56;;;9.82;83.27
82305;BME280;71914;47.382;8.168;2023-10-08T02:34:29;97836.19;;;9.82;82.70
82305;BME280;71914;47.382;8.168;2023-10-08T02:36:55;97837.13;;;9.80;82.79
82305;BME280;71914;47.382;8.168;2023-10-08T02:39:22;97832.13;;;9.77;82.93
82305;BME280;71914;47.382;8.168;2023-10-08T02:41:51;97827.19;;;9.73;83.11
82305;BME280;71914;47.382;8.168;2023-10-08T02:44:18;97829.50;;;9.77;83.14
82305;BME280;71914;47.382;8.168;2023-10-08T02:46:47;97837.25;;;9.79;82.86
82305;BME280;71914;47.382;8.168;2023-10-08T02:49:15;97830.03;;;9.83;83.22
82305;BME280;71914;47.382;8.168;2023-10-08T02:51:46;97837.66;;;9.86;83.12
82305;BME280;71914;47.382;8.168;2023-10-08T02:54:12;97841.13;;;9.86;82.76
82305;BME280;71914;47.382;8.168;2023-10-08T02:56:44;97841.13;;;9.86;82.66
82305;BME280;71914;47.382;8.168;2023-10-08T02:59:10;97839.84;;;9.79;82.11
82305;BME280;71914;47.382;8.168;2023-10-08T03:01:37;97839.03;;;9.78;82.20
82305;BME280;71914;47.382;8.168;2023-10-08T03:04:05;97838.06;;;9.79;82.59
82305;BME280;71914;47.382;8.168;2023-10-08T03:06:41;97842.69;;;9.76;81.60
82305;BME280;71914;47.382;8.168;2023-10-08T03:09:06;97845.94;;;9.67;82.92
82305;BME280;71914;47.382;8.168;2023-10-08T03:11:35;97850.13;;;9.69;83.06
82305;BME280;71914;47.382;8.168;2023-10-08T03:14:02;97837.47;;;9.76;83.12
82305;BME280;71914;47.382;8.168;2023-10-08T03:16:28;97837.13;;;9.80;82.04
82305;BME280;71914;47.382;8.168;2023-10-08T03:18:59;97837.66;;;9.86;82.57
82305;BME280;71914;47.382;8.168;2023-10-08T03:21:24;97835.03;;;9.86;82.31
82305;BME280;71914;47.382;8.168;2023-10-08T03:24:10;97830.53;;;9.88;81.76
82305;BME280;71914;47.382;8.168;2023-10-08T03:26:55;97832.31;;;9.87;81.92
82305;BME280;71914;47.382;8.168;2023-10-08T03:29:31;97837.53;;;9.87;81.55
82305;BME280;71914;47.382;8.168;2023-10-08T03:31:56;97838.69;;;9.83;81.52
82305;BME280;71914;47.382;8.168;2023-10-08T03:34:22;97833.28;;;9.73;81.85
82305;BME280;71914;47.382;8.168;2023-10-08T03:36:59;97833.78;;;9.66;81.43
82305;BME280;71914;47.382;8.168;2023-10-08T03:39:32;97829.06;;;9.58;82.45
82305;BME280;71914;47.382;8.168;2023-10-08T03:42:19;97826.03;;;9.51;82.15
82305;BME280;71914;47.382;8.168;2023-10-08T03:44:46;97827.09;;;9.49;82.14
82305;BME280;71914;47.382;8.168;2023-10-08T03:47:16;97830.22;;;9.41;82.77
82305;BME280;71914;47.382;8.168;2023-10-08T03:49:44;97821.09;;;9.34;83.09
82305;BME280;71914;47.382;8.168;2023-10-08T03:52:11;97820.78;;;9.38;83.23
82305;BME280;71914;47.382;8.168;2023-10-08T03:54:39;97829.38;;;9.40;83.20
82305;BME280;71914;47.382;8.168;2023-10-08T03:57:09;97829.16;;;9.43;82.88
82305;BME280;71914;47.382;8.168;2023-10-08T04:00:08;97828.75;;;9.50;82.80
82305;BME280;71914;47.382;8.168;2023-10-08T04:02:36;97825.94;;;9.53;82.59
82305;BME280;71914;47.382;8.168;2023-10-08T04:05:22;97827.91;;;9.49;82.20
82305;BME280;71914;47.382;8.168;2023-10-08T04:07:52;97823.19;;;9.41;82.34
82305;BME280;71914;47.382;8.168;2023-10-08T04:10:25;97826.94;;;9.37;82.28
82305;BME280;71914;47.382;8.168;2023-10-08T04:13:11;97819.44;;;9.33;82.29
82305;BME280;71914;47.382;8.168;2023-10-08T04:15:37;97819.50;;;9.31;82.65
82305;BME280;71914;47.382;8.168;2023-10-08T04:18:06;97823.28;;;9.40;82.82
82305;BME280;71914;47.382;8.168;2023-10-08T04:20:31;97826.56;;;9.43;82.62
82305;BME280;71914;47.382;8.168;2023-10-08T04:23:04;97824.22;;;9.39;82.22
82305;BME280;71914;47.382;8.168;2023-10-08T04:25:32;97816.06;;;9.30;82.74
82305;BME280;71914;47.382;8.168;2023-10-08T04:27:59;97815.44;;;9.27;82.98
82305;BME280;71914;47.382;8.168;2023-10-08T04:30:25;97815.53;;;9.25;83.23
82305;BME280;71914;47.382;8.168;2023-10-08T04:32:58;97813.25;;;9.21;82.95
82305;BME280;71914;47.382;8.168;2023-10-08T04:35:23;97823.09;;;9.30;83.43
82305;BME280;71914;47.382;8.168;2023-10-08T04:37:52;97811.38;;;9.36;83.07
82305;BME280;71914;47.382;8.168;2023-10-08T04:40:18;97816.59;;;9.36;82.93
82305;BME280;71914;47.382;8.168;2023-10-08T04:42:49;97819.09;;;9.37;83.30
82305;BME280;71914;47.382;8.168;2023-10-08T04:45:15;97816.72;;;9.34;82.17
82305;BME280;71914;47.382;8.168;2023-10-08T04:47:41;97813.13;;;9.22;83.05
82305;BME280;71914;47.382;8.168;2023-10-08T04:50:08;97817.19;;;9.13;83.39
82305;BME280;71914;47.382;8.168;2023-10-08T04:52:40;97825.88;;;9.14;82.96
82305;BME280;71914;47.382;8.168;2023-10-08T04:55:11;97822.81;;;9.07;83.17
82305;BME280;71914;47.382;8.168;2023-10-08T04:57:45;97830.09;;;8.89;84.63
82305;BME280;71914;47.382;8.168;2023-10-08T05:00:12;97836.16;;;8.90;84.94
82305;BME280;71914;47.382;8.168;2023-10-08T05:02:41;97830.00;;;8.91;85.25
82305;BME280;71914;47.382;8.168;2023-10-08T05:05:16;97827.19;;;8.94;84.50
82305;BME280;71914;47.382;8.168;2023-10-08T05:07:41;97830.66;;;9.07;84.24
82305;BME280;71914;47.382;8.168;2023-10-08T05:10:07;97824.50;;;9.08;83.45
82305;BME280;71914;47.382;8.168;2023-10-08T05:12:33;97824.81;;;9.04;82.95
82305;BME280;71914;47.382;8.168;2023-10-08T05:15:17;97834.63;;;9.00;82.84
82305;BME280;71914;47.382;8.168;2023-10-08T05:17:47;97841.13;;;9.07;83.48
82305;BME280;71914;47.382;8.168;2023-10-08T05:20:15;97841.97;;;9.08;82.91
82305;BME280;71914;47.382;8.168;2023-10-08T05:23:00;97848.97;;;9.07;82.71
82305;BME280;71914;47.382;8.168;2023-10-08T05:25:47;97833.81;;;9.00;82.49
82305;BME280;71914;47.382;8.168;2023-10-08T05:28:31;97842.47;;;9.00;83.03
82305;BME280;71914;47.382;8.168;2023-10-08T05:31:08;97849.03;;;8.93;82.74
82305;BME280;71914;47.382;8.168;2023-10-08T05:33:39;97841.16;;;8.80;82.82
82305;BME280;71914;47.382;8.168;2023-10-08T05:36:23;97843.66;;;8.82;83.19
82305;BME280;71914;47.382;8.168;2023-10-08T05:39:15;97840.88;;;8.70;83.23
82305;BME280;71914;47.382;8.168;2023-10-08T05:41:49;97850.84;;;8.78;83.68
82305;BME280;71914;47.382;8.168;2023-10-08T05:44:30;97846.28;;;8.82;83.13
82305;BME280;71914;47.382;8.168;2023-10-08T05:47:06;97844.81;;;8.77;83.43
82305;BME280;71914;47.382;8.168;2023-10-08T05:49:51;97845.94;;;8.73;83.89
82305;BME280;71914;47.382;8.168;2023-10-08T05:52:40;97850.56;;;8.83;83.82
82305;BME280;71914;47.382;8.168;2023-10-08T05:55:24;97850.09;;;8.76;83.85
82305;BME280;71914;47.382;8.168;2023-10-08T05:57:53;97847.41;;;8.77;83.93
82305;BME280;71914;47.382;8.168;2023-10-08T06:00:28;97842.81;;;8.81;83.69
82305;BME280;71914;47.382;8.168;2023-10-08T06:03:01;97849.53;;;8.85;83.81
82305;BME280;71914;47.382;8.168;2023-10-08T06:05:36;97855.38;;;8.89;83.85
82305;BME280;71914;47.382;8.168;2023-10-08T06:08:11;97857.50;;;8.96;83.53
82305;BME280;71914;47.382;8.168;2023-10-08T06:10:38;97866.34;;;9.08;83.45
82305;BME280;71914;47.382;8.168;2023-10-08T06:13:05;97861.09;;;9.08;83.10
82305;BME280;71914;47.382;8.168;2023-10-08T06:15:57;97859.97;;;9.12;83.60
82305;BME280;71914;47.382;8.168;2023-10-08T06:18:25;97870.84;;;9.19;83.94
82305;BME280;71914;47.382;8.168;2023-10-08T06:20:51;97871.38;;;9.24;83.47
82305;BME280;71914;47.382;8.168;2023-10-08T06:23:20;97873.41;;;9.34;83.30
82305;BME280;71914;47.382;8.168;2023-10-08T06:25:48;97874.38;;;9.45;83.58
82305;BME280;71914;47.382;8.168;2023-10-08T06:28:19;97870.94;;;9.58;83.38
82305;BME280;71914;47.382;8.168;2023-10-08T06:30:46;97862.16;;;9.59;82.90
82305;BME280;71914;47.382;8.168;2023-10-08T06:33:11;97864.44;;;9.63;82.63
82305;BME280;71914;47.382;8.168;2023-10-08T06:35:38;97860.78;;;9.66;82.74
82305;BME280;71914;47.382;8.168;2023-10-08T06:38:09;97859.97;;;9.66;83.33
82305;BME280;71914;47.382;8.168;2023-10-08T06:40:34;97865.22;;;9.78;83.42
82305;BME280;71914;47.382;8.168;2023-10-08T06:43:03;97874.41;;;9.84;83.58
82305;BME280;71914;47.382;8.168;2023-10-08T06:45:37;97872.75;;;9.96;84.21
82305;BME280;71914;47.382;8.168;2023-10-08T06:48:03;97883.22;;;10.09;83.53
82305;BME280;71914;47.382;8.168;2023-10-08T06:50:31;97884.97;;;10.21;83.70
82305;BME280;71914;47.382;8.168;2023-10-08T06:53:03;97890.75;;;10.39;83.59
82305;BME280;71914;47.382;8.168;2023-10-08T06:55:33;97886.31;;;10.53;83.46
82305;BME280;71914;47.382;8.168;2023-10-08T06:58:01;97894.03;;;10.67;83.18
82305;BME280;71914;47.382;8.168;2023-10-08T07:00:31;97897.63;;;10.90;82.62
82305;BME280;71914;47.382;8.168;2023-10-08T07:03:06;97900.22;;;11.03;81.67
82305;BME280;71914;47.382;8.168;2023-10-08T07:05:33;97897.75;;;11.13;81.69
82305;BME280;71914;47.382;8.168;2023-10-08T07:08:10;97898.41;;;11.28;81.25
82305;BME280;71914;47.382;8.168;2023-10-08T07:10:38;97904.53;;;11.40;80.85
82305;BME280;71914;47.382;8.168;2023-10-08T07:13:04;97906.94;;;11.43;80.33
82305;BME280;71914;47.382;8.168;2023-10-08T07:15:33;97907.25;;;11.62;80.46
82305;BME280;71914;47.382;8.168;2023-10-08T07:17:58;97901.31;;;11.72;80.36
82305;BME280;71914;47.382;8.168;2023-10-08T07:20:35;97908.50;;;11.92;79.67
82305;BME280;71914;47.382;8.168;2023-10-08T07:23:04;97903.66;;;11.99;79.27
82305;BME280;71914;47.382;8.168;2023-10-08T07:25:36;97899.84;;;12.03;79.42
82305;BME280;71914;47.382;8.168;2023-10-08T07:28:04;97902.34;;;12.05;78.21
82305;BME280;71914;47.382;8.168;2023-10-08T07:30:31;97907.72;;;12.15;78.44
82305;BME280;71914;47.382;8.168;2023-10-08T07:33:04;97901.66;;;12.25;78.96
82305;BME280;71914;47.382;8.168;2023-10-08T07:35:29;97904.13;;;12.38;78.36
82305;BME280;71914;47.382;8.168;2023-10-08T07:37:55;97904.63;;;12.32;77.63
82305;BME280;71914;47.382;8.168;2023-10-08T07:40:21;97901.41;;;12.40;77.39
82305;BME280;71914;47.382;8.168;2023-10-08T07:42:48;97906.53;;;12.64;76.66
82305;BME280;71914;47.382;8.168;2023-10-08T07:45:17;97905.44;;;12.67;76.24
82305;BME280;71914;47.382;8.168;2023-10-08T07:47:43;97907.94;;;12.79;75.53
82305;BME280;71914;47.382;8.168;2023-10-08T07:50:09;97916.63;;;12.91;74.85
82305;BME280;71914;47.382;8.168;2023-10-08T07:52:37;97906.47;;;12.98;74.45
82305;BME280;71914;47.382;8.168;2023-10-08T07:55:03;97916.25;;;13.07;75.03
82305;BME280;71914;47.382;8.168;2023-10-08T07:57:32;97908.56;;;13.16;73.74
82305;BME280;71914;47.382;8.168;2023-10-08T08:00:00;97918.22;;;13.26;74.49
82305;BME280;71914;47.382;8.168;2023-10-08T08:02:44;97923.47;;;13.38;73.11
82305;BME280;71914;47.382;8.168;2023-10-08T08:05:10;97917.47;;;13.36;72.71
82305;BME280;71914;47.382;8.168;2023-10-08T08:07:35;97916.06;;;13.32;71.45
82305;BME280;71914;47.382;8.168;2023-10-08T08:10:02;97915.50;;;13.17;71.34
82305;BME280;71914;47.382;8.168;2023-10-08T08:12:36;97919.78;;;13.29;72.37
82305;BME280;71914;47.382;8.168;2023-10-08T08:15:05;97932.47;;;13.24;71.36
82305;BME280;71914;47.382;8.168;2023-10-08T08:17:40;97929.84;;;13.24;70.67
82305;BME280;71914;47.382;8.168;2023-10-08T08:20:07;97932.22;;;13.27;71.45
82305;BME280;71914;47.382;8.168;2023-10-08T08:22:43;97929.59;;;13.27;70.51
82305;BME280;71914;47.382;8.168;2023-10-08T08:25:15;97929.69;;;13.37;70.75
82305;BME280;71914;47.382;8.168;2023-10-08T08:27:41;97931.91;;;13.53;71.60
82305;BME280;71914;47.382;8.168;2023-10-08T08:30:11;97930.06;;;13.65;69.26
82305;BME280;71914;47.382;8.168;2023-10-08T08:32:41;97927.00;;;13.81;71.41
82305;BME280;71914;47.382;8.168;2023-10-08T08:35:11;97929.84;;;13.77;70.59
82305;BME280;71914;47.382;8.168;2023-10-08T08:37:37;97927.44;;;14.07;70.70
82305;BME280;71914;47.382;8.168;2023-10-08T08:40:07;97931.72;;;14.29;70.26
82305;BME280;71914;47.382;8.168;2023-10-08T08:42:53;97929.56;;;14.44;70.16
82305;BME280;71914;47.382;8.168;2023-10-08T08:45:23;97928.09;;;14.61;69.02
82305;BME280;71914;47.382;8.168;2023-10-08T08:47:59;97930.09;;;14.69;66.93
82305;BME280;71914;47.382;8.168;2023-10-08T08:50:25;97933.44;;;14.71;67.10
82305;BME280;71914;47.382;8.168;2023-10-08T08:52:52;97930.28;;;14.56;67.33
82305;BME280;71914;47.382;8.168;2023-10-08T08:55:18;97932.72;;;14.69;68.72
82305;BME280;71914;47.382;8.168;2023-10-08T08:57:47;97934.59;;;14.88;69.13
82305;BME280;71914;47.382;8.168;2023-10-08T09:00:14;97940.19;;;15.04;68.60
82305;BME280;71914;47.382;8.168;2023-10-08T09:02:41;97927.00;;;15.04;67.00
82305;BME280;71914;47.382;8.168;2023-10-08T09:05:10;97929.22;;;15.09;66.75
82305;BME280;71914;47.382;8.168;2023-10-08T09:07:55;97931.34;;;15.25;66.78
82305;BME280;71914;47.382;8.168;2023-10-08T09:10:22;97929.66;;;15.24;65.68
82305;BME280;71914;47.382;8.168;2023-10-08T09:12:52;97938.28;;;15.26;65.68
82305;BME280;71914;47.382;8.168;2023-10-08T09:15:19;97935.22;;;15.31;65.33
82305;BME280;71914;47.382;8.168;2023-10-08T09:17:46;97935.50;;;15.37;66.00
82305;BME280;71914;47.382;8.168;2023-10-08T09:20:12;97927.72;;;15.55;64.58
82305;BME280;71914;47.382;8.168;2023-10-08T09:22:37;97923.69;;;15.61;64.38
82305;BME280;71914;47.382;8.168;2023-10-08T09:25:03;97922.44;;;15.75;65.00
82305;BME280;71914;47.382;8.168;2023-10-08T09:27:33;97916.63;;;15.81;62.97
82305;BME280;71914;47.382;8.168;2023-10-08T09:29:58;97933.16;;;15.73;62.53
82305;BME280;71914;47.382;8.168;2023-10-08T09:32:24;97925.50;;;15.90;63.11
82305;BME280;71914;47.382;8.168;2023-10-08T09:34:52;97922.72;;;15.91;62.83
82305;BME280;71914;47.382;8.168;2023-10-08T09:37:18;97924.09;;;16.05;62.88
82305;BME280;71914;47.382;8.168;2023-10-08T09:39:48;97919.06;;;16.12;61.96
82305;BME280;71914;47.382;8.168;2023-10-08T09:42:14;97916.66;;;16.19;62.40
82305;BME280;71914;47.382;8.168;2023-10-08T09:44:40;97920.66;;;16.33;61.81
82305;BME280;71914;47.382;8.168;2023-10-08T09:47:08;97917.81;;;16.54;62.17
82305;BME280;71914;47.382;8.168;2023-10-08T09:49:38;97916.53;;;16.58;60.62
82305;BME280;71914;47.382;8.168;2023-10-08T09:52:10;97920.28;;;16.65;61.10
82305;BME280;71914;47.382;8.168;2023-10-08T09:54:44;97913.41;;;16.72;61.09
82305;BME280;71914;47.382;8.168;2023-10-08T09:57:10;97913.63;;;17.07;61.59
82305;BME280;71914;47.382;8.168;2023-10-08T09:59:36;97928.72;;;17.42;61.13
82305;BME280;71914;47.382;8.168;2023-10-08T10:02:09;97917.53;;;17.49;58.88
82305;BME280;71914;47.382;8.168;2023-10-08T10:04:36;97908.97;;;17.55;58.07
82305;BME280;71914;47.382;8.168;2023-10-08T10:07:11;97917.22;;;17.52;57.60
82305;BME280;71914;47.382;8.168;2023-10-08T10:09:38;97914.94;;;17.57;58.55
82305;BME280;71914;47.382;8.168;2023-10-08T10:12:05;97922.22;;;17.73;57.39
82305;BME280;71914;47.382;8.168;2023-10-08T10:14:41;97912.69;;;17.88;55.38
82305;BME280;71914;47.382;8.168;2023-10-08T10:17:12;97918.47;;;18.02;57.40
82305;BME280;71914;47.382;8.168;2023-10-08T10:19:45;97918.22;;;18.13;56.01
82305;BME280;71914;47.382;8.168;2023-10-08T10:22:29;97918.47;;;18.28;55.35
82305;BME280;71914;47.382;8.168;2023-10-08T10:24:56;97915.59;;;18.48;54.92
82305;BME280;71914;47.382;8.168;2023-10-08T10:27:23;97919.25;;;18.47;54.03
82305;BME280;71914;47.382;8.168;2023-10-08T10:29:48;97920.41;;;18.52;54.74
82305;BME280;71914;47.382;8.168;2023-10-08T10:32:15;97920.41;;;18.52;54.39
82305;BME280;71914;47.382;8.168;2023-10-08T10:34:42;97914.13;;;18.53;53.74
82305;BME280;71914;47.382;8.168;2023-10-08T10:37:08;97916.19;;;18.68;53.57
82305;BME280;71914;47.382;8.168;2023-10-08T10:39:56;97910.78;;;18.86;53.38
82305;BME280;71914;47.382;8.168;2023-10-08T10:42:25;97913.25;;;18.87;53.95
82305;BME280;71914;47.382;8.168;2023-10-08T10:44:54;97906.38;;;19.03;53.09
82305;BME280;71914;47.382;8.168;2023-10-08T10:47:24;97905.72;;;19.17;53.74
82305;BME280;71914;47.382;8.168;2023-10-08T10:49:53;97909.72;;;19.21;53.49
82305;BME280;71914;47.382;8.168;2023-10-08T10:52:26;97905.41;;;19.29;52.40
82305;BME280;71914;47.382;8.168;2023-10-08T10:55:02;97911.91;;;19.43;52.27
82305;BME280;71914;47.382;8.168;2023-10-08T10:57:41;97913.09;;;19.65;52.67
82305;BME280;71914;47.382;8.168;2023-10-08T11:00:08;97906.94;;;19.72;52.32
82305;BME280;71914;47.382;8.168;2023-10-08T11:02:52;97909.59;;;19.72;51.13
82305;BME280;71914;47.382;8.168;2023-10-08T11:05:22;97895.97;;;19.92;49.91
82305;BME280;71914;47.382;8.168;2023-10-08T11:07:54;97893.81;;;19.96;51.41
82305;BME280;71914;47.382;8.168;2023-10-08T11:10:24;97893.31;;;19.92;50.53
82305;BME280;71914;47.382;8.168;2023-10-08T11:12:50;97891.63;;;20.07;50.39
82305;BME280;71914;47.382;8.168;2023-10-08T11:15:19;97890.59;;;20.17;50.60
82305;BME280;71914;47.382;8.168;2023-10-08T11:17:49;97886.91;;;20.34;49.70
82305;BME280;71914;47.382;8.168;2023-10-08T11:20:25;97884.41;;;20.41;49.61
82305;BME280;71914;47.382;8.168;2023-10-08T11:22:51;97883.25;;;20.27;49.35
82305;BME280;71914;47.382;8.168;2023-10-08T11:25:21;97881.41;;;20.36;49.07
82305;BME280;71914;47.382;8.168;2023-10-08T11:27:51;97882.69;;;20.48;49.54
82305;BME280;71914;47.382;8.168;2023-10-08T11:30:24;97875.34;;;20.59;49.57
82305;BME280;71914;47.382;8.168;2023-10-08T11:32:50;97874.16;;;20.69;49.10
82305;BME280;71914;47.382;8.168;2023-10-08T11:35:16;97867.22;;;20.92;49.61
82305;BME280;71914;47.382;8.168;2023-10-08T11:37:45;97869.97;;;21.06;47.71
82305;BME280;71914;47.382;8.168;2023-10-08T11:40:21;97866.75;;;21.11;48.29
82305;BME280;71914;47.382;8.168;2023-10-08T11:42:55;97863.03;;;21.20;47.01
82305;BME280;71914;47.382;8.168;2023-10-08T11:45:22;97864.81;;;21.28;48.07
82305;BME280;71914;47.382;8.168;2023-10-08T11:47:52;97858.03;;;21.40;46.22
82305;BME280;71914;47.382;8.168;2023-10-08T11:50:23;97853.06;;;21.37;46.90
82305;BME280;71914;47.382;8.168;2023-10-08T11:52:56;97856.53;;;21.46;46.99
82305;BME280;71914;47.382;8.168;2023-10-08T11:55:27;97850.19;;;21.47;46.70
82305;BME280;71914;47.382;8.168;2023-10-08T11:57:52;97845.72;;;21.63;47.88
82305;BME280;71914;47.382;8.168;2023-10-08T12:00:20;97841.34;;;21.85;45.60
82305;BME280;71914;47.382;8.168;2023-10-08T12:02:45;97833.34;;;21.85;46.83
82305;BME280;71914;47.382;8.168;2023-10-08T12:05:11;97830.34;;;21.88;46.05
82305;BME280;71914;47.382;8.168;2023-10-08T12:07:44;97831.97;;;21.89;46.14
82305;BME280;71914;47.382;8.168;2023-10-08T12:10:09;97828.94;;;22.07;45.64
82305;BME280;71914;47.382;8.168;2023-10-08T12:12:36;97828.97;;;22.22;45.57
82305;BME280;71914;47.382;8.168;2023-10-08T12:15:02;97832.53;;;22.29;44.10
82305;BME280;71914;47.382;8.168;2023-10-08T12:17:30;97825.00;;;22.33;44.56
82305;BME280;71914;47.382;8.168;2023-10-08T12:20:05;97822.69;;;22.30;44.41
82305;BME280;71914;47.382;8.168;2023-10-08T12:22:48;97818.19;;;22.45;45.39
82305;BME280;71914;47.382;8.168;2023-10-08T12:25:14;97816.88;;;22.56;44.80
82305;BME280;71914;47.382;8.168;2023-10-08T12:27:39;97816.59;;;22.66;44.37
82305;BME280;71914;47.382;8.168;2023-10-08T12:30:05;97813.34;;;22.70;43.62
82305;BME280;71914;47.382;8.168;2023-10-08T12:32:37;97809.19;;;22.83;43.94
82305;BME280;71914;47.382;8.168;2023-10-08T12:35:07;97804.59;;;22.77;43.18
82305;BME280;71914;47.382;8.168;2023-10-08T12:37:38;97802.31;;;22.74;43.35
82305;BME280;71914;47.382;8.168;2023-10-08T12:40:05;97797.47;;;22.84;43.62
82305;BME280;71914;47.382;8.168;2023-10-08T12:42:37;97794.16;;;22.82;43.12
82305;BME280;71914;47.382;8.168;2023-10-08T12:45:09;97791.56;;;22.88;42.62
82305;BME280;71914;47.382;8.168;2023-10-08T12:47:39;97797.28;;;22.85;42.38
82305;BME280;71914;47.382;8.168;2023-10-08T12:50:05;97794.03;;;22.90;43.01
82305;BME280;71914;47.382;8.168;2023-10-08T12:52:33;97791.88;;;23.00;42.96
82305;BME280;71914;47.382;8.168;2023-10-08T12:55:00;97791.72;;;23.09;43.23
82305;BME280;71914;47.382;8.168;2023-10-08T12:57:29;97779.50;;;23.14;43.24
82305;BME280;71914;47.382;8.168;2023-10-08T12:59:58;97782.03;;;23.23;42.33
82305;BME280;71914;47.382;8.168;2023-10-08T13:02:24;97779.84;;;23.33;42.44
82305;BME280;71914;47.382;8.168;2023-10-08T13:04:54;97779.72;;;23.41;42.40
82305;BME280;71914;47.382;8.168;2023-10-08T13:07:20;97774.81;;;23.45;41.73
82305;BME280;71914;47.382;8.168;2023-10-08T13:09:47;97772.59;;;23.48;41.64
82305;BME280;71914;47.382;8.168;2023-10-08T13:12:12;97771.16;;;23.52;41.57
82305;BME280;71914;47.382;8.168;2023-10-08T13:14:40;97769.63;;;23.71;42.26
82305;BME280;71914;47.382;8.168;2023-10-08T13:17:06;97771.97;;;23.81;41.44
82305;BME280;71914;47.382;8.168;2023-10-08T13:19:36;97760.28;;;23.89;41.61